createdAt,value
2022-09-11T00:00:54.492Z,19.45
2022-09-11T00:02:26.444Z,17.08
2022-09-11T00:07:11.623Z,14.23
2022-09-11T00:08:44.083Z,14.85
2022-09-11T00:10:16.820Z,15.00
2022-09-11T00:11:48.835Z,15.30
2022-09-11T00:13:22.764Z,17.85
2022-09-11T00:14:54.759Z,16.30
2022-09-11T00:23:18.494Z,13.40
2022-09-11T00:24:50.546Z,14.05
2022-09-11T00:26:22.948Z,16.52
2022-09-11T00:27:56.250Z,17.57
2022-09-11T00:31:09.164Z,14.15
2022-09-11T00:32:41.497Z,15.73
2022-09-11T00:34:13.449Z,14.65
2022-09-11T00:35:54.854Z,14.10
2022-09-11T00:37:26.792Z,13.23
2022-09-11T00:38:59.452Z,13.68
2022-09-11T00:40:31.534Z,15.90
2022-09-11T00:42:03.866Z,15.98
2022-09-11T00:48:50.256Z,13.75
2022-09-11T00:50:25.391Z,17.52
2022-09-11T00:52:24.336Z,13.57
2022-09-11T00:53:57.374Z,13.20
2022-09-11T00:55:32.570Z,14.70
2022-09-11T00:57:07.209Z,12.90
2022-09-11T01:09:06.735Z,15.07
2022-09-11T01:10:56.726Z,16.55
2022-09-11T01:12:43.876Z,12.93
2022-09-11T01:14:53.820Z,13.43
2022-09-11T01:16:35.190Z,14.68
2022-09-11T01:18:31.905Z,13.95
2022-09-11T01:20:25.139Z,14.52
2022-09-11T01:22:12.244Z,11.27
2022-09-11T01:24:15.639Z,11.57
2022-09-11T01:25:59.297Z,14.57
2022-09-11T01:27:41.374Z,11.88
2022-09-11T01:29:18.760Z,13.70
2022-09-11T01:32:56.183Z,10.65
2022-09-11T01:34:48.671Z,11.40
2022-09-11T01:36:29.196Z,11.30
2022-09-11T01:38:05.666Z,15.38
2022-09-11T01:39:42.672Z,14.18
2022-09-11T01:41:19.159Z,14.25
2022-09-11T01:42:53.665Z,13.35
2022-09-11T01:44:32.660Z,13.07
2022-09-11T01:46:07.632Z,13.18
2022-09-11T01:47:40.922Z,13.73
2022-09-11T01:49:42.784Z,12.13
2022-09-11T01:51:21.488Z,13.77
2022-09-11T01:52:58.418Z,14.32
2022-09-11T01:54:34.444Z,12.40
2022-09-11T01:56:10.771Z,14.05
2022-09-11T01:57:45.867Z,11.80
2022-09-11T01:59:21.936Z,17.45
2022-09-11T02:00:59.382Z,14.07
2022-09-11T02:02:39.357Z,13.10
2022-09-11T02:04:16.425Z,16.00
2022-09-11T02:05:54.146Z,11.18
2022-09-11T02:07:30.469Z,14.15
2022-09-11T02:09:07.087Z,15.32
2022-09-11T02:10:54.860Z,13.48
2022-09-11T02:12:33.183Z,13.38
2022-09-11T02:14:14.004Z,14.73
2022-09-11T02:15:50.796Z,15.48
2022-09-11T02:17:48.574Z,12.98
2022-09-11T02:19:25.295Z,16.60
2022-09-11T02:20:57.517Z,17.70
2022-09-11T02:22:30.532Z,14.15
2022-09-11T02:24:02.884Z,14.95
2022-09-11T02:25:34.906Z,16.63
2022-09-11T02:27:10.275Z,16.38
2022-09-11T02:28:42.297Z,15.80
2022-09-11T02:30:15.246Z,16.40
2022-09-11T02:31:47.308Z,13.13
2022-09-11T02:33:34.080Z,12.20
2022-09-11T02:35:07.323Z,12.23
2022-09-11T02:37:03.608Z,12.10
2022-09-11T02:38:58.635Z,13.50
2022-09-11T02:40:49.060Z,14.90
2022-09-11T02:42:51.615Z,12.50
2022-09-11T02:44:40.546Z,13.98
2022-09-11T02:46:15.383Z,18.83
2022-09-11T02:47:47.425Z,16.90
2022-09-11T02:49:59.421Z,12.45
2022-09-11T02:51:43.515Z,11.93
2022-09-11T02:53:18.641Z,14.18
2022-09-11T02:54:59.510Z,14.68
2022-09-11T02:56:45.390Z,14.10
2022-09-11T02:58:37.426Z,11.75
2022-09-11T03:00:10.530Z,10.80
2022-09-11T03:01:55.578Z,10.70
2022-09-11T03:03:27.734Z,11.88
2022-09-11T03:04:59.711Z,15.55
2022-09-11T03:06:31.682Z,12.13
2022-09-11T03:08:04.721Z,10.60
2022-09-11T03:09:36.652Z,10.07
2022-09-11T03:11:11.260Z,11.43
2022-09-11T03:12:43.270Z,18.73
2022-09-11T03:14:15.379Z,11.18
2022-09-11T03:15:47.981Z,10.85
2022-09-11T03:17:20.363Z,13.48
2022-09-11T03:18:52.350Z,12.87
2022-09-11T03:20:24.349Z,12.55
2022-09-11T03:21:56.424Z,13.50
2022-09-11T03:23:28.662Z,12.48
2022-09-11T03:25:00.704Z,12.57
2022-09-11T03:26:33.973Z,10.57
2022-09-11T03:29:38.129Z,12.75
2022-09-11T03:31:10.869Z,11.38
2022-09-11T03:32:42.896Z,12.85
2022-09-11T03:34:15.088Z,12.45
2022-09-11T03:35:47.594Z,12.15
2022-09-11T03:37:19.566Z,11.18
2022-09-11T03:38:52.983Z,10.85
2022-09-11T03:40:24.999Z,11.32
2022-09-11T03:41:57.066Z,13.10
2022-09-11T03:43:29.765Z,12.10
2022-09-11T03:45:01.850Z,10.85
2022-09-11T03:46:33.998Z,14.80
2022-09-11T03:48:06.941Z,12.38
2022-09-11T03:49:39.531Z,10.88
2022-09-11T03:51:11.556Z,12.32
2022-09-11T03:52:44.002Z,11.05
2022-09-11T03:54:17.968Z,10.63
2022-09-11T03:55:52.601Z,10.73
2022-09-11T03:57:24.594Z,12.13
2022-09-11T03:59:00.537Z,12.65
2022-09-11T04:00:36.712Z,10.43
2022-09-11T04:02:12.965Z,13.45
2022-09-11T04:03:45.086Z,12.27
2022-09-11T04:05:18.160Z,10.48
2022-09-11T04:06:50.290Z,11.00
2022-09-11T04:08:22.590Z,14.93
2022-09-11T04:09:54.576Z,10.70
2022-09-11T04:11:26.539Z,10.48
2022-09-11T04:12:58.519Z,10.93
2022-09-11T04:14:30.526Z,12.48
2022-09-11T04:16:05.468Z,12.15
2022-09-11T04:17:37.543Z,11.02
2022-09-11T04:19:10.641Z,10.57
2022-09-11T04:20:42.708Z,10.25
2022-09-11T04:22:14.687Z,10.68
2022-09-11T04:23:52.334Z,11.55
2022-09-11T04:25:24.521Z,13.80
2022-09-11T04:27:00.608Z,12.57
2022-09-11T04:28:32.982Z,11.77
2022-09-11T04:30:06.448Z,13.57
2022-09-11T04:31:38.711Z,16.10
2022-09-11T04:33:10.690Z,12.13
2022-09-11T04:34:42.756Z,16.33
2022-09-11T04:36:19.421Z,12.27
2022-09-11T04:37:51.429Z,12.57
2022-09-11T04:39:23.580Z,11.48
2022-09-11T04:40:55.570Z,12.88
2022-09-11T04:42:27.543Z,13.70
2022-09-11T04:44:04.816Z,13.90
2022-09-11T04:45:37.652Z,14.35
2022-09-11T04:47:09.663Z,14.48
2022-09-11T04:48:45.713Z,14.80
2022-09-11T04:50:17.813Z,13.10
2022-09-11T04:51:50.238Z,14.32
2022-09-11T04:53:22.180Z,13.73
2022-09-11T04:54:54.422Z,14.73
2022-09-11T04:56:31.197Z,13.38
2022-09-11T04:58:03.896Z,15.30
2022-09-11T04:59:36.166Z,12.63
2022-09-11T05:01:15.572Z,16.27
2022-09-11T05:02:48.033Z,14.32
2022-09-11T05:04:24.080Z,12.47
2022-09-11T05:05:57.896Z,15.45
2022-09-11T05:09:10.769Z,14.30
2022-09-11T05:10:42.775Z,15.35
2022-09-11T05:12:15.012Z,14.52
2022-09-11T05:13:47.111Z,13.50
2022-09-11T05:15:19.797Z,13.13
2022-09-11T05:16:53.347Z,15.98
2022-09-11T05:18:26.245Z,13.38
2022-09-11T05:19:59.299Z,13.90
2022-09-11T05:21:32.297Z,15.18
2022-09-11T05:23:04.250Z,12.57
2022-09-11T05:24:36.225Z,16.42
2022-09-11T05:26:14.676Z,12.88
2022-09-11T05:27:46.732Z,12.77
2022-09-11T05:29:19.925Z,14.30
2022-09-11T05:30:53.148Z,14.02
2022-09-11T05:32:25.126Z,13.82
2022-09-11T05:33:57.591Z,14.68
2022-09-11T05:35:32.382Z,13.50
2022-09-11T05:37:05.714Z,14.45
2022-09-11T05:38:38.000Z,14.60
2022-09-11T05:40:10.729Z,16.38
2022-09-11T05:41:43.432Z,12.85
2022-09-11T05:43:20.003Z,14.82
2022-09-11T05:44:52.593Z,12.10
2022-09-11T05:46:26.115Z,14.45
2022-09-11T05:47:58.197Z,13.75
2022-09-11T05:49:30.258Z,13.80
2022-09-11T05:51:04.013Z,19.33
2022-09-11T05:52:36.084Z,13.93
2022-09-11T05:54:08.564Z,15.02
2022-09-11T05:55:40.546Z,13.70
2022-09-11T05:57:12.588Z,17.52
2022-09-11T05:58:46.673Z,15.50
2022-09-11T06:00:19.158Z,14.30
2022-09-11T06:01:51.554Z,13.57
2022-09-11T06:03:24.018Z,17.40
2022-09-11T06:04:59.007Z,15.13
2022-09-11T06:06:32.286Z,15.07
2022-09-11T06:08:05.302Z,14.32
2022-09-11T06:09:40.487Z,13.88
2022-09-11T06:11:20.293Z,15.95
2022-09-11T06:12:52.536Z,15.57
2022-09-11T06:14:25.598Z,13.57
2022-09-11T06:15:57.905Z,17.00
2022-09-11T06:17:30.424Z,14.85
2022-09-11T06:19:05.204Z,16.42
2022-09-11T06:20:37.539Z,14.65
2022-09-11T06:22:10.447Z,15.00
2022-09-11T06:23:42.874Z,14.45
2022-09-11T06:25:15.316Z,14.60
2022-09-11T06:26:47.516Z,16.83
2022-09-11T06:28:19.508Z,17.20
2022-09-11T06:29:52.068Z,13.82
2022-09-11T06:31:26.359Z,15.93
2022-09-11T06:32:59.572Z,14.88
2022-09-11T06:36:07.339Z,14.48
2022-09-11T06:37:39.738Z,17.92
2022-09-11T06:39:12.155Z,15.40
2022-09-11T06:40:44.557Z,14.50
2022-09-11T06:42:17.064Z,17.27
2022-09-11T06:43:50.631Z,16.23
2022-09-11T06:45:22.931Z,14.15
2022-09-11T06:46:55.423Z,15.60
2022-09-11T06:48:27.646Z,14.55
2022-09-11T06:49:59.964Z,13.60
2022-09-11T06:51:32.364Z,14.45
2022-09-11T06:53:04.716Z,15.50
2022-09-11T06:54:36.714Z,13.95
2022-09-11T06:56:13.362Z,14.27
2022-09-11T06:57:45.461Z,14.60
2022-09-11T06:59:17.686Z,15.50
2022-09-11T07:00:49.786Z,16.48
2022-09-11T07:02:22.257Z,15.48
2022-09-11T07:03:55.477Z,15.13
2022-09-11T07:05:27.777Z,15.73
2022-09-11T07:06:59.939Z,17.02
2022-09-11T07:08:31.926Z,13.80
2022-09-11T07:10:05.449Z,15.40
2022-09-11T07:11:38.797Z,12.52
2022-09-11T07:13:10.888Z,11.85
2022-09-11T07:14:43.086Z,12.32
2022-09-11T07:16:16.893Z,12.27
2022-09-11T07:17:49.364Z,13.57
2022-09-11T07:19:22.789Z,12.35
2022-09-11T07:20:56.176Z,8.50
2022-09-11T07:22:29.848Z,11.90
2022-09-11T07:24:02.314Z,8.50
2022-09-11T07:25:38.711Z,7.85
2022-09-11T07:27:14.308Z,8.18
2022-09-11T07:28:49.252Z,8.13
2022-09-11T07:30:22.377Z,8.27
2022-09-11T07:31:57.642Z,8.27
2022-09-11T07:33:29.991Z,8.00
2022-09-11T07:35:03.594Z,8.70
2022-09-11T07:36:37.966Z,6.85
2022-09-11T07:38:10.319Z,7.15
2022-09-11T07:39:42.426Z,8.00
2022-09-11T07:41:15.853Z,8.85
2022-09-11T07:42:47.834Z,8.82
2022-09-11T07:44:21.049Z,7.03
2022-09-11T07:47:25.954Z,7.65
2022-09-11T07:48:59.075Z,9.50
2022-09-11T07:50:31.635Z,7.00
2022-09-11T07:52:04.222Z,7.38
2022-09-11T07:53:45.062Z,7.45
2022-09-11T07:55:17.605Z,6.53
2022-09-11T07:56:50.408Z,7.85
2022-09-11T07:58:22.800Z,7.20
2022-09-11T07:59:55.289Z,8.40
2022-09-11T08:01:30.061Z,6.55
2022-09-11T08:03:02.450Z,7.43
2022-09-11T08:04:37.406Z,7.10
2022-09-11T08:06:20.135Z,9.02
2022-09-11T08:07:54.309Z,5.72
2022-09-11T08:09:27.817Z,6.82
2022-09-11T08:11:05.801Z,6.82
2022-09-11T08:12:38.383Z,7.30
2022-09-11T08:14:12.107Z,5.95
2022-09-11T08:15:51.452Z,6.20
2022-09-11T08:17:23.802Z,6.57
2022-09-11T08:18:57.341Z,7.75
2022-09-11T08:20:29.726Z,5.45
2022-09-11T08:22:02.040Z,6.75
2022-09-11T08:23:35.167Z,5.60
2022-09-11T08:25:10.218Z,4.30
2022-09-11T08:26:46.806Z,5.70
2022-09-11T08:28:20.993Z,4.95
2022-09-11T08:29:54.450Z,4.80
2022-09-11T08:31:27.703Z,5.72
2022-09-11T08:33:02.040Z,11.85
2022-09-11T08:34:34.474Z,7.47
2022-09-11T08:36:09.777Z,6.97
2022-09-11T08:37:42.217Z,5.80
2022-09-11T08:39:14.536Z,6.25
2022-09-11T08:40:47.819Z,6.50
2022-09-11T08:44:12.861Z,6.20
2022-09-11T08:45:45.510Z,4.82
2022-09-11T08:47:22.877Z,4.78
2022-09-11T08:49:07.460Z,5.43
2022-09-11T08:50:44.235Z,6.18
2022-09-11T08:52:17.283Z,6.15
2022-09-11T08:53:50.236Z,7.63
2022-09-11T08:55:33.465Z,5.10
2022-09-11T08:57:35.652Z,5.00
2022-09-11T08:59:23.303Z,4.97
2022-09-11T09:01:04.530Z,5.28
2022-09-11T09:02:39.925Z,5.65
2022-09-11T09:04:46.371Z,4.45
2022-09-11T09:06:45.656Z,5.75
2022-09-11T09:08:23.861Z,4.78
2022-09-11T09:10:15.823Z,6.85
2022-09-11T09:12:07.595Z,4.60
2022-09-11T09:13:46.447Z,6.20
2022-09-11T09:15:28.776Z,4.70
2022-09-11T09:17:08.074Z,4.97
2022-09-11T09:19:17.178Z,5.20
2022-09-11T09:21:20.973Z,6.15
2022-09-11T09:22:59.941Z,5.22
2022-09-11T09:24:37.503Z,6.30
2022-09-11T09:26:17.625Z,6.70
2022-09-11T09:28:09.503Z,4.75
2022-09-11T09:29:42.497Z,4.82
2022-09-11T09:31:23.957Z,5.22
2022-09-11T09:33:05.063Z,5.47
2022-09-11T09:34:39.280Z,4.97
2022-09-11T09:36:26.732Z,4.20
2022-09-11T09:38:00.199Z,4.18
2022-09-11T09:39:32.883Z,6.55
2022-09-11T09:41:36.865Z,4.32
2022-09-11T09:43:19.768Z,4.05
2022-09-11T09:45:20.773Z,4.82
2022-09-11T09:46:54.036Z,5.13
2022-09-11T09:49:59.226Z,4.03
2022-09-11T09:51:31.438Z,4.53
2022-09-11T09:53:16.889Z,4.25
2022-09-11T09:55:01.808Z,4.40
2022-09-11T09:56:38.072Z,5.85
2022-09-11T09:58:10.719Z,3.42
2022-09-11T09:59:48.382Z,5.25
2022-09-11T10:01:50.586Z,5.05
2022-09-11T10:03:29.507Z,6.05
2022-09-11T10:05:14.505Z,3.50
2022-09-11T10:06:50.744Z,4.95
2022-09-11T10:08:38.508Z,3.50
2022-09-11T10:10:28.661Z,7.00
2022-09-11T10:12:03.558Z,3.15
2022-09-11T10:13:39.226Z,3.63
2022-09-11T10:15:19.630Z,5.05
2022-09-11T10:18:43.229Z,2.72
2022-09-11T10:20:27.308Z,3.83
2022-09-11T10:22:15.481Z,3.05
2022-09-11T10:23:50.651Z,4.97
2022-09-11T10:25:27.525Z,3.45
2022-09-11T10:26:59.950Z,3.03
2022-09-11T10:28:34.304Z,3.50
2022-09-11T10:30:13.495Z,4.68
2022-09-11T10:31:55.264Z,3.80
2022-09-11T10:33:33.426Z,5.22
2022-09-11T10:35:09.986Z,3.25
2022-09-11T10:37:04.241Z,4.25
2022-09-11T10:38:45.628Z,2.85
2022-09-11T10:40:22.681Z,3.10
2022-09-11T10:41:59.378Z,3.15
2022-09-11T10:43:56.524Z,3.60
2022-09-11T10:45:28.825Z,4.57
2022-09-11T10:47:19.239Z,3.72
2022-09-11T10:49:11.666Z,2.72
2022-09-11T10:50:45.318Z,3.30
2022-09-11T10:52:20.025Z,5.00
2022-09-11T10:54:14.269Z,1.77
2022-09-11T10:56:06.557Z,4.13
2022-09-11T10:57:50.804Z,5.03
2022-09-11T10:59:27.451Z,3.65
2022-09-11T11:01:03.116Z,4.10
2022-09-11T11:02:39.264Z,2.45
2022-09-11T11:04:13.177Z,2.28
2022-09-11T11:06:07.579Z,5.53
2022-09-11T11:08:08.722Z,2.88
2022-09-11T11:09:57.983Z,5.28
2022-09-11T11:12:09.500Z,8.30
2022-09-11T11:14:18.434Z,7.75
2022-09-11T11:20:27.183Z,1.88
2022-09-11T11:22:17.976Z,2.38
2022-09-11T11:24:00.633Z,2.67
2022-09-11T11:25:44.850Z,5.57
2022-09-11T11:27:47.424Z,2.38
2022-09-11T11:29:34.166Z,4.00
2022-09-11T11:31:44.472Z,5.72
2022-09-11T11:33:17.761Z,4.53
2022-09-11T11:37:09.589Z,5.88
2022-09-11T11:38:47.663Z,4.13
2022-09-11T11:40:33.049Z,3.25
2022-09-11T11:42:15.952Z,2.65
2022-09-11T11:43:49.244Z,3.15
2022-09-11T11:45:32.374Z,5.65
2022-09-11T11:47:07.780Z,2.63
2022-09-11T11:48:55.425Z,3.15
2022-09-11T11:50:49.256Z,2.97
2022-09-11T11:54:19.737Z,8.70
2022-09-11T11:56:00.406Z,8.75
2022-09-11T11:57:38.945Z,3.30
2022-09-11T11:59:52.670Z,3.63
2022-09-11T12:01:33.997Z,4.88
2022-09-11T12:03:22.385Z,2.92
2022-09-11T12:05:02.598Z,2.65
2022-09-11T12:06:35.929Z,4.10
2022-09-11T12:08:15.606Z,6.43
2022-09-11T12:09:52.746Z,3.58
2022-09-11T12:11:30.574Z,4.72
2022-09-11T12:13:07.097Z,4.75
2022-09-11T12:14:55.813Z,2.65
2022-09-11T12:16:32.209Z,2.08
2022-09-11T12:18:16.474Z,6.60
2022-09-11T12:20:13.468Z,2.60
2022-09-11T12:21:54.954Z,3.80
2022-09-11T12:23:33.027Z,4.65
2022-09-11T12:25:30.503Z,2.08
2022-09-11T12:27:36.663Z,3.08
2022-09-11T12:29:20.544Z,5.20
2022-09-11T12:31:07.059Z,8.32
2022-09-11T12:33:01.547Z,3.55
2022-09-11T12:34:39.604Z,4.05
2022-09-11T12:36:14.788Z,2.70
2022-09-11T12:37:54.937Z,3.15
2022-09-11T12:39:37.418Z,4.00
2022-09-11T12:41:23.257Z,4.53
2022-09-11T12:42:58.596Z,6.05
2022-09-11T12:44:53.433Z,5.22
2022-09-11T12:46:28.811Z,4.75
2022-09-11T12:48:06.733Z,4.13
2022-09-11T12:49:40.354Z,3.42
2022-09-11T12:51:50.344Z,2.15
2022-09-11T12:53:34.917Z,3.17
2022-09-11T12:55:36.604Z,3.58
2022-09-11T12:57:15.544Z,2.97
2022-09-11T12:59:12.679Z,2.75
2022-09-11T13:00:48.294Z,4.55
2022-09-11T13:02:47.162Z,4.53
2022-09-11T13:04:27.822Z,2.65
2022-09-11T13:06:08.432Z,3.08
2022-09-11T13:07:46.913Z,3.05
2022-09-11T13:09:22.029Z,3.45
2022-09-11T13:10:54.438Z,2.55
2022-09-11T13:12:26.572Z,1.50
2022-09-11T13:14:00.416Z,2.97
2022-09-11T13:15:38.096Z,2.45
2022-09-11T13:17:26.486Z,5.63
2022-09-11T13:19:10.753Z,3.00
2022-09-11T13:20:43.106Z,2.50
2022-09-11T13:22:31.456Z,1.48
2022-09-11T13:24:03.934Z,3.22
2022-09-11T13:25:41.118Z,3.78
2022-09-11T13:27:25.015Z,3.67
2022-09-11T13:28:59.754Z,2.00
2022-09-11T13:30:32.123Z,4.72
2022-09-11T13:32:11.968Z,2.35
2022-09-11T13:33:49.671Z,4.18
2022-09-11T13:35:26.265Z,4.28
2022-09-11T13:36:59.062Z,2.80
2022-09-11T13:38:34.730Z,3.95
2022-09-11T13:40:11.734Z,4.38
2022-09-11T13:41:44.858Z,2.80
2022-09-11T13:44:52.609Z,4.07
2022-09-11T13:46:32.323Z,2.85
2022-09-11T13:48:14.539Z,2.45
2022-09-11T13:49:47.412Z,4.18
2022-09-11T13:51:25.777Z,2.13
2022-09-11T13:52:58.247Z,1.88
2022-09-11T13:55:05.019Z,5.05
2022-09-11T13:56:38.825Z,3.85
2022-09-11T13:58:23.681Z,3.75
2022-09-11T14:00:00.653Z,4.32
2022-09-11T14:01:34.211Z,3.78
2022-09-11T14:03:29.686Z,2.78
2022-09-11T14:05:09.782Z,2.45
2022-09-11T14:06:46.555Z,2.63
2022-09-11T14:08:25.015Z,3.15
2022-09-11T14:09:58.787Z,3.20
2022-09-11T14:11:32.406Z,6.85
2022-09-11T14:13:17.408Z,3.03
2022-09-11T14:32:33.269Z,3.13
2022-09-11T14:34:16.400Z,3.85
2022-09-11T14:35:49.109Z,3.15
2022-09-11T14:37:22.238Z,5.57
2022-09-11T14:40:27.594Z,4.07
2022-09-11T14:42:00.394Z,5.85
2022-09-11T14:43:34.117Z,2.45
2022-09-11T14:45:20.184Z,3.50
2022-09-11T14:46:53.215Z,3.50
2022-09-11T14:48:26.965Z,2.55
2022-09-11T14:49:59.243Z,2.85
2022-09-11T14:51:32.180Z,2.57
2022-09-11T14:53:04.760Z,2.90
2022-09-11T14:54:38.094Z,5.65
2022-09-11T14:56:10.801Z,3.03
2022-09-11T14:57:43.148Z,3.35
2022-09-11T14:59:15.664Z,4.53
2022-09-11T15:00:48.560Z,3.60
2022-09-11T15:02:23.847Z,2.97
2022-09-11T15:03:57.305Z,5.13
2022-09-11T15:05:29.722Z,2.90
2022-09-11T15:07:02.023Z,4.20
2022-09-11T15:08:34.364Z,4.00
2022-09-11T15:10:07.205Z,3.00
2022-09-11T15:11:40.511Z,2.83
2022-09-11T15:13:13.760Z,2.95
2022-09-11T15:14:56.162Z,2.50
2022-09-11T15:18:01.840Z,3.67
2022-09-11T15:19:38.503Z,4.75
2022-09-11T15:21:10.779Z,4.13
2022-09-11T15:22:43.177Z,5.67
2022-09-11T15:24:15.866Z,4.28
2022-09-11T15:25:48.179Z,5.55
2022-09-11T15:27:20.586Z,3.40
2022-09-11T15:28:53.923Z,3.90
2022-09-11T15:30:28.154Z,3.50
2022-09-11T15:32:02.450Z,6.05
2022-09-11T15:33:34.828Z,3.15
2022-09-11T15:35:08.502Z,3.63
2022-09-11T15:36:41.921Z,4.38
2022-09-11T15:38:14.335Z,10.40
2022-09-11T15:39:46.712Z,3.58
2022-09-11T15:41:22.508Z,3.70
2022-09-11T15:42:57.178Z,6.18
2022-09-11T15:44:29.608Z,5.68
2022-09-11T15:46:11.753Z,3.75
2022-09-11T15:47:44.867Z,3.42
2022-09-11T15:51:00.511Z,7.85
2022-09-11T15:52:36.863Z,4.95
2022-09-11T15:54:09.903Z,8.60
2022-09-11T15:55:42.206Z,8.63
2022-09-11T15:57:14.495Z,7.43
2022-09-11T15:58:48.208Z,5.78
2022-09-11T16:00:20.547Z,5.63
2022-09-11T16:01:53.091Z,6.43
2022-09-11T16:03:25.947Z,4.38
2022-09-11T16:04:58.242Z,6.88
2022-09-11T16:06:33.234Z,5.60
2022-09-11T16:08:05.631Z,4.70
2022-09-11T16:09:38.144Z,5.85
2022-09-11T16:11:11.415Z,6.05
2022-09-11T16:14:21.475Z,6.25
2022-09-11T16:16:03.021Z,5.47
2022-09-11T16:17:35.645Z,6.97
2022-09-11T16:19:08.086Z,6.93
2022-09-11T16:20:44.083Z,7.10
2022-09-11T16:22:16.405Z,8.52
2022-09-11T16:23:53.631Z,8.03
2022-09-11T16:25:28.493Z,4.43
2022-09-11T16:27:02.036Z,3.78
2022-09-11T16:28:36.010Z,6.88
2022-09-11T16:30:32.592Z,5.00
2022-09-11T16:32:01.746Z,5.00
2022-09-11T16:33:37.444Z,4.20
2022-09-11T16:35:13.790Z,5.82
2022-09-11T16:36:46.703Z,5.80
2022-09-11T16:38:19.057Z,3.75
2022-09-11T16:39:51.492Z,4.10
2022-09-11T16:41:24.480Z,6.50
2022-09-11T16:42:56.924Z,3.38
2022-09-11T16:44:29.638Z,5.18
2022-09-11T16:46:02.594Z,7.90
2022-09-11T16:47:35.248Z,6.00
2022-09-11T16:49:07.547Z,8.50
2022-09-11T16:50:39.948Z,3.57
2022-09-11T16:52:12.665Z,5.20
2022-09-11T16:53:45.457Z,4.25
2022-09-11T16:55:17.829Z,4.68
2022-09-11T16:56:50.210Z,3.93
2022-09-11T16:58:23.491Z,6.40
2022-09-11T17:01:28.610Z,7.15
2022-09-11T17:03:00.997Z,3.88
2022-09-11T17:04:33.335Z,5.77
2022-09-11T17:06:07.149Z,6.17
2022-09-11T17:07:42.406Z,6.05
2022-09-11T17:09:14.802Z,6.28
2022-09-11T17:10:49.779Z,8.68
2022-09-11T17:12:22.664Z,6.60
2022-09-11T17:13:55.200Z,3.63
2022-09-11T17:15:29.971Z,4.22
2022-09-11T17:17:02.243Z,3.83
2022-09-11T17:18:34.755Z,4.78
2022-09-11T17:20:09.819Z,3.97
2022-09-11T17:21:42.299Z,4.63
2022-09-11T17:23:14.499Z,3.97
2022-09-11T17:24:46.972Z,5.50
2022-09-11T17:26:19.545Z,7.80
2022-09-11T17:29:24.715Z,5.03
2022-09-11T17:31:01.651Z,3.80
2022-09-11T17:32:33.937Z,4.40
2022-09-11T17:34:06.257Z,2.67
2022-09-11T17:35:39.748Z,3.90
2022-09-11T17:37:12.098Z,5.65
2022-09-11T17:38:46.322Z,5.03
2022-09-11T17:40:18.901Z,2.08
2022-09-11T17:41:51.267Z,2.85
2022-09-11T17:43:23.555Z,2.47
2022-09-11T17:44:58.787Z,5.72
2022-09-11T17:46:31.274Z,2.28
2022-09-11T17:48:03.893Z,2.83
2022-09-11T17:49:36.447Z,4.05
2022-09-11T17:51:23.271Z,2.92
2022-09-11T17:52:55.548Z,5.28
2022-09-11T17:54:28.533Z,4.47
2022-09-11T17:56:04.874Z,3.88
2022-09-11T17:57:37.960Z,3.60
2022-09-11T17:59:10.472Z,4.72
2022-09-11T18:00:42.802Z,8.13
2022-09-11T18:03:53.187Z,3.60
2022-09-11T18:05:26.548Z,3.80
2022-09-11T18:06:58.900Z,2.75
2022-09-11T18:08:33.548Z,3.33
2022-09-11T18:10:06.590Z,1.95
2022-09-11T18:11:43.601Z,5.13
2022-09-11T18:13:16.604Z,3.75
2022-09-11T18:14:49.158Z,7.35
2022-09-11T18:16:22.517Z,5.70
2022-09-11T18:17:55.156Z,3.17
2022-09-11T18:19:28.467Z,5.43
2022-09-11T18:22:40.004Z,7.45
2022-09-11T18:24:15.266Z,4.53
2022-09-11T18:25:47.513Z,4.07
2022-09-11T18:27:20.057Z,5.85
2022-09-11T18:29:00.307Z,5.10
2022-09-11T18:30:32.836Z,5.60
2022-09-11T18:32:05.450Z,5.20
2022-09-11T18:33:37.888Z,6.15
2022-09-11T18:35:10.435Z,4.17
2022-09-11T18:38:15.355Z,2.35
2022-09-11T18:39:49.179Z,4.22
2022-09-11T18:41:23.016Z,2.78
2022-09-11T18:42:55.463Z,2.63
2022-09-11T18:44:27.903Z,3.33
2022-09-11T18:46:05.160Z,3.90
2022-09-11T18:47:38.272Z,2.97
2022-09-11T18:49:11.745Z,4.47
2022-09-11T18:50:44.108Z,4.80
2022-09-11T18:52:17.088Z,1.97
2022-09-11T18:53:54.083Z,3.47
2022-09-11T18:55:26.832Z,3.80
2022-09-11T18:57:00.207Z,4.82
2022-09-11T18:58:33.671Z,1.83
2022-09-11T19:01:40.356Z,3.83
2022-09-11T19:03:12.800Z,5.05
2022-09-11T19:04:45.620Z,7.20
2022-09-11T19:06:21.538Z,3.67
2022-09-11T19:07:55.681Z,4.18
2022-09-11T19:09:29.616Z,3.38
2022-09-11T19:11:12.705Z,4.70
2022-09-11T19:12:48.725Z,2.92
2022-09-11T19:14:21.541Z,3.28
2022-09-11T19:15:57.807Z,3.63
2022-09-11T19:17:30.129Z,5.70
2022-09-11T19:19:03.434Z,3.45
2022-09-11T19:22:07.988Z,3.05
2022-09-11T19:23:42.960Z,2.42
2022-09-11T19:25:15.798Z,3.45
2022-09-11T19:26:48.164Z,2.72
2022-09-11T19:28:20.371Z,4.13
2022-09-11T19:29:53.984Z,3.75
2022-09-11T19:31:30.059Z,3.20
2022-09-11T19:33:02.442Z,4.38
2022-09-11T19:34:38.708Z,2.72
2022-09-11T19:36:17.179Z,5.32
2022-09-11T19:37:49.771Z,2.85
2022-09-11T19:39:22.349Z,3.25
2022-09-11T19:40:54.927Z,4.15
2022-09-11T19:42:27.887Z,3.72
2022-09-11T19:44:02.132Z,4.38
2022-09-11T19:45:34.813Z,7.20
2022-09-11T19:47:07.539Z,3.47
2022-09-11T19:48:40.768Z,4.95
2022-09-11T19:51:52.425Z,3.55
2022-09-11T19:53:24.672Z,4.28
2022-09-11T19:54:57.041Z,5.82
2022-09-11T19:56:29.877Z,3.67
2022-09-11T19:58:01.890Z,3.45
2022-09-11T19:59:34.251Z,3.67
2022-09-11T20:01:11.944Z,5.87
2022-09-11T20:02:47.061Z,4.90
2022-09-11T20:04:19.527Z,4.28
2022-09-11T20:05:54.243Z,4.35
2022-09-11T20:07:26.751Z,4.55
2022-09-11T20:09:26.967Z,4.70
2022-09-11T20:10:52.719Z,3.70
2022-09-11T20:12:32.956Z,8.02
2022-09-11T20:14:05.921Z,4.97
2022-09-11T20:15:39.454Z,3.40
2022-09-11T20:17:11.830Z,6.65
2022-09-11T20:18:44.584Z,4.57
2022-09-11T20:20:17.266Z,3.90
2022-09-11T20:21:49.736Z,5.60
2022-09-11T20:23:21.796Z,3.93
2022-09-11T20:24:53.817Z,4.35
2022-09-11T20:26:28.370Z,6.93
2022-09-11T20:28:01.106Z,4.85
2022-09-11T20:29:33.091Z,6.53
2022-09-11T20:31:21.362Z,3.22
2022-09-11T20:32:53.701Z,4.72
2022-09-11T20:34:28.600Z,5.07
2022-09-11T20:36:00.645Z,7.13
2022-09-11T20:37:34.443Z,4.38
2022-09-11T20:39:06.786Z,6.13
2022-09-11T20:42:13.747Z,4.63
2022-09-11T20:43:45.960Z,6.57
2022-09-11T20:45:18.198Z,5.07
2022-09-11T20:46:50.795Z,4.50
2022-09-11T20:48:23.109Z,4.15
2022-09-11T20:49:55.275Z,5.85
2022-09-11T20:51:27.396Z,5.60
2022-09-11T20:53:00.523Z,3.38
2022-09-11T20:56:07.500Z,4.15
2022-09-11T20:57:39.603Z,4.18
2022-09-11T20:59:11.628Z,5.22
2022-09-11T21:00:44.892Z,3.92
2022-09-11T21:03:52.282Z,6.70
2022-09-11T21:05:24.349Z,5.00
2022-09-11T21:06:56.478Z,6.35
2022-09-11T21:08:28.478Z,4.80
2022-09-11T21:10:00.502Z,5.95
2022-09-11T21:11:32.985Z,4.55
2022-09-11T21:13:05.048Z,8.25
2022-09-11T21:14:37.086Z,6.72
2022-09-11T21:16:11.739Z,5.68
2022-09-11T21:17:43.740Z,5.03
2022-09-11T21:19:15.750Z,6.65
2022-09-11T21:20:55.173Z,6.47
2022-09-11T21:22:27.301Z,4.63
2022-09-11T21:24:04.919Z,4.78
2022-09-11T21:25:43.122Z,5.95
2022-09-11T21:27:15.194Z,4.85
2022-09-11T21:28:47.375Z,4.20
2022-09-11T21:30:19.439Z,4.70
2022-09-11T21:31:51.522Z,5.40
2022-09-11T21:33:23.550Z,5.47
2022-09-11T21:34:55.632Z,5.25
2022-09-11T21:36:27.667Z,5.47
2022-09-11T21:37:59.607Z,6.93
2022-09-11T21:39:31.601Z,4.60
2022-09-11T21:41:05.811Z,6.97
2022-09-11T21:42:37.796Z,6.70
2022-09-11T21:44:09.913Z,5.32
2022-09-11T21:45:42.076Z,5.70
2022-09-11T21:47:14.139Z,6.00
2022-09-11T21:48:46.079Z,5.28
2022-09-11T21:50:18.444Z,4.82
2022-09-11T21:51:50.547Z,6.17
2022-09-11T21:53:22.563Z,5.68
2022-09-11T21:54:55.186Z,7.50
2022-09-11T21:56:30.683Z,7.50
2022-09-11T21:58:02.697Z,4.22
2022-09-11T21:59:34.721Z,6.20
2022-09-11T22:01:08.861Z,4.78
2022-09-11T22:02:41.177Z,4.38
2022-09-11T22:04:13.654Z,6.32
2022-09-11T22:05:47.756Z,5.20
2022-09-11T22:07:20.361Z,5.88
2022-09-11T22:08:53.736Z,5.40
2022-09-11T22:10:26.706Z,6.57
2022-09-11T22:12:00.058Z,5.72
2022-09-11T22:13:35.677Z,6.07
2022-09-11T22:15:08.501Z,5.55
2022-09-11T22:16:40.673Z,5.22
2022-09-11T22:18:13.292Z,7.65
2022-09-11T22:19:46.171Z,6.55
2022-09-11T22:21:18.533Z,8.23
2022-09-11T22:22:51.390Z,6.65
2022-09-11T22:24:23.520Z,6.38
2022-09-11T22:26:06.741Z,4.72
2022-09-11T22:27:38.754Z,7.15
2022-09-11T22:29:10.757Z,7.47
2022-09-11T22:30:43.924Z,6.85
2022-09-11T22:32:16.351Z,5.13
2022-09-11T22:33:48.606Z,4.97
2022-09-11T22:35:20.946Z,4.70
2022-09-11T22:36:52.937Z,7.53
2022-09-11T22:38:24.916Z,7.57
2022-09-11T22:39:57.018Z,5.13
2022-09-11T22:41:29.140Z,5.95